Terminal Aerodrome Forecast
Issued by NWS Topeka, KS

Home | Current Version | Previous Version | Graphics & Text | Print | Product List | Glossary On
Versions: 1 2 3 4 5 6 7 8 9 10 11 12 13 14 15 16
110
FTUS43 KTOP 102323
TAFTOP
TAF
KTOP 102323Z 1100/1124 32010KT P6SM SKC
     FM110400 01006KT P6SM SCT030 SCT130
     FM111400 04007KT P6SM BKN030=

USA.gov is the U.S. government's official web portal to all federal, state and local government web resources and services.